createdAt,value
2022-12-27T00:00:30.213Z, 30.10
2022-12-27T00:01:30.127Z, 30.06
2022-12-27T00:02:30.186Z, 30.02
2022-12-27T00:03:30.124Z, 30.05
2022-12-27T00:04:30.130Z, 30.00
2022-12-27T00:05:30.160Z, 29.97
2022-12-27T00:06:30.131Z, 30.03
2022-12-27T00:07:30.143Z, 29.97
2022-12-27T00:08:30.165Z, 29.94
2022-12-27T00:09:30.130Z, 29.93
2022-12-27T00:10:30.150Z, 29.92
2022-12-27T00:11:30.168Z, 29.91
2022-12-27T00:12:30.315Z, 29.90
2022-12-27T00:13:30.312Z, 29.92
2022-12-27T00:14:30.307Z, 29.89
2022-12-27T00:15:30.303Z, 29.84
2022-12-27T00:16:30.361Z, 29.83
2022-12-27T00:17:30.329Z, 29.80
2022-12-27T00:18:30.311Z, 29.85
2022-12-27T00:19:30.318Z, 29.83
2022-12-27T00:20:30.320Z, 29.80
2022-12-27T00:21:30.321Z, 29.79
2022-12-27T00:22:30.314Z, 29.78
2022-12-27T00:23:30.333Z, 29.76
2022-12-27T00:24:30.309Z, 29.75
2022-12-27T00:25:30.315Z, 29.74
2022-12-27T00:26:30.317Z, 29.71
2022-12-27T00:27:30.488Z, 29.71
2022-12-27T00:28:30.499Z, 29.68
2022-12-27T00:29:30.506Z, 29.66
2022-12-27T00:30:30.502Z, 29.61
2022-12-27T00:31:30.418Z, 29.61
2022-12-27T00:32:30.500Z, 29.66
2022-12-27T00:33:30.525Z, 29.59
2022-12-27T00:34:30.501Z, 29.58
2022-12-27T00:35:30.503Z, 29.59
2022-12-27T00:36:30.504Z, 29.57
2022-12-27T00:37:30.516Z, 29.57
2022-12-27T00:38:30.502Z, 29.58
2022-12-27T00:39:30.498Z, 29.53
2022-12-27T00:40:30.510Z, 29.49
2022-12-27T00:41:30.505Z, 29.49
2022-12-27T00:42:30.493Z, 29.48
2022-12-27T00:43:30.698Z, 29.48
2022-12-27T00:44:30.677Z, 29.47
2022-12-27T00:45:30.694Z, 29.44
2022-12-27T00:46:30.675Z, 29.46
2022-12-27T00:47:30.681Z, 29.46
2022-12-27T00:48:30.672Z, 29.45
2022-12-27T00:49:30.675Z, 29.46
2022-12-27T00:50:30.688Z, 29.43
2022-12-27T00:51:30.683Z, 29.41
2022-12-27T00:52:30.679Z, 29.41
2022-12-27T00:53:30.709Z, 29.39
2022-12-27T00:54:30.711Z, 29.35
2022-12-27T00:55:30.686Z, 29.36
2022-12-27T00:56:30.912Z, 29.35
2022-12-27T00:57:30.714Z, 29.34
2022-12-27T00:58:30.720Z, 29.32
2022-12-27T00:59:30.850Z, 29.30
2022-12-27T01:00:30.856Z, 29.31
2022-12-27T01:01:30.979Z, 29.28
2022-12-27T01:02:30.863Z, 29.29
2022-12-27T01:03:30.929Z, 29.28
2022-12-27T01:04:30.869Z, 29.22
2022-12-27T01:05:30.858Z, 29.20
2022-12-27T01:06:30.868Z, 29.25
2022-12-27T01:07:30.852Z, 29.21
2022-12-27T01:08:30.897Z, 29.20
2022-12-27T01:09:30.875Z, 29.23
2022-12-27T01:10:30.865Z, 29.20
2022-12-27T01:11:30.884Z, 29.19
2022-12-27T01:12:30.872Z, 29.16
2022-12-27T01:13:30.874Z, 29.13
2022-12-27T01:14:30.896Z, 29.12
2022-12-27T01:15:30.874Z, 29.10
2022-12-27T01:16:31.161Z, 29.09
2022-12-27T01:17:31.041Z, 29.11
2022-12-27T01:18:31.043Z, 29.10
2022-12-27T01:19:31.043Z, 29.09
2022-12-27T01:20:31.045Z, 29.09
2022-12-27T01:21:31.151Z, 29.09
2022-12-27T01:22:31.057Z, 29.04
2022-12-27T01:23:31.046Z, 29.02
2022-12-27T01:24:31.051Z, 29.01
2022-12-27T01:25:31.051Z, 28.99
2022-12-27T01:26:31.054Z, 28.99
2022-12-27T01:27:31.082Z, 28.97
2022-12-27T01:28:31.069Z, 28.98
2022-12-27T01:29:31.233Z, 28.96
2022-12-27T01:30:31.217Z, 28.95
2022-12-27T01:31:31.345Z, 28.95
2022-12-27T01:32:31.222Z, 28.93
2022-12-27T01:33:31.223Z, 28.93
2022-12-27T01:34:31.226Z, 28.92
2022-12-27T01:35:31.221Z, 28.89
2022-12-27T01:36:31.229Z, 28.88
2022-12-27T01:37:31.234Z, 28.83
2022-12-27T01:38:31.234Z, 28.82
2022-12-27T01:39:31.232Z, 28.77
2022-12-27T01:40:31.235Z, 28.77
2022-12-27T01:41:31.238Z, 28.80
2022-12-27T01:42:31.400Z, 28.79
2022-12-27T01:43:31.260Z, 28.78
2022-12-27T01:44:31.257Z, 28.80
2022-12-27T01:45:31.469Z, 28.79
2022-12-27T01:46:31.411Z, 28.75
2022-12-27T01:47:31.414Z, 28.74
2022-12-27T01:48:31.418Z, 28.76
2022-12-27T01:49:31.405Z, 28.77
2022-12-27T01:50:31.420Z, 28.75
2022-12-27T01:51:31.416Z, 28.75
2022-12-27T01:52:34.907Z, 28.75
2022-12-27T01:53:31.415Z, 28.71
2022-12-27T01:54:31.420Z, 28.68
2022-12-27T01:55:31.417Z, 28.67
2022-12-27T01:56:31.416Z, 28.64
2022-12-27T01:57:31.415Z, 28.60
2022-12-27T01:58:31.431Z, 28.58
2022-12-27T01:59:31.419Z, 28.60
2022-12-27T02:00:31.437Z, 28.60
2022-12-27T02:01:31.585Z, 28.59
2022-12-27T02:02:31.690Z, 28.56
2022-12-27T02:03:31.601Z, 28.57
2022-12-27T02:04:31.602Z, 28.55
2022-12-27T02:05:31.597Z, 28.54
2022-12-27T02:06:31.592Z, 28.58
2022-12-27T02:07:31.592Z, 28.58
2022-12-27T02:08:31.593Z, 28.59
2022-12-27T02:09:31.596Z, 28.56
2022-12-27T02:10:31.608Z, 28.55
2022-12-27T02:11:31.611Z, 28.53
2022-12-27T02:12:31.609Z, 28.51
2022-12-27T02:13:31.628Z, 28.51
2022-12-27T02:14:31.779Z, 28.49
2022-12-27T02:15:31.634Z, 28.47
2022-12-27T02:16:31.740Z, 28.44
2022-12-27T02:17:31.647Z, 28.46
2022-12-27T02:18:31.773Z, 28.47
2022-12-27T02:19:31.636Z, 28.45
2022-12-27T02:20:31.640Z, 28.39
2022-12-27T02:21:31.787Z, 28.40
2022-12-27T02:22:31.808Z, 28.38
2022-12-27T02:23:37.684Z, 28.36
2022-12-27T02:24:31.800Z, 28.34
2022-12-27T02:25:31.776Z, 28.35
2022-12-27T02:26:31.789Z, 28.31
2022-12-27T02:27:31.787Z, 28.30
2022-12-27T02:28:31.804Z, 28.32
2022-12-27T02:29:31.791Z, 28.32
2022-12-27T02:30:32.074Z, 28.30
2022-12-27T02:31:31.809Z, 28.27
2022-12-27T02:32:31.970Z, 28.28
2022-12-27T02:33:31.951Z, 28.28
2022-12-27T02:34:31.962Z, 28.25
2022-12-27T02:35:31.972Z, 28.25
2022-12-27T02:36:31.961Z, 28.23
2022-12-27T02:37:31.988Z, 28.24
2022-12-27T02:38:31.986Z, 28.20
2022-12-27T02:39:31.966Z, 28.18
2022-12-27T02:40:31.958Z, 28.19
2022-12-27T02:41:31.988Z, 28.17
2022-12-27T02:42:31.966Z, 28.17
2022-12-27T02:43:32.003Z, 28.15
2022-12-27T02:44:31.985Z, 28.16
2022-12-27T02:45:31.971Z, 28.16
2022-12-27T02:46:32.104Z, 28.15
2022-12-27T02:47:31.989Z, 28.13
2022-12-27T02:48:32.016Z, 28.11
2022-12-27T02:49:32.005Z, 28.14
2022-12-27T02:50:32.002Z, 28.11
2022-12-27T02:51:32.023Z, 28.10
2022-12-27T02:52:32.020Z, 28.08
2022-12-27T02:53:32.033Z, 28.07
2022-12-27T02:54:32.035Z, 28.11
2022-12-27T02:55:32.021Z, 28.10
2022-12-27T02:56:32.018Z, 28.08
2022-12-27T02:57:32.035Z, 28.09
2022-12-27T02:58:32.041Z, 28.06
2022-12-27T02:59:32.047Z, 28.05
2022-12-27T03:00:32.031Z, 28.03
2022-12-27T03:01:32.197Z, 28.03
2022-12-27T03:02:32.160Z, 28.01
2022-12-27T03:03:32.073Z, 28.00
2022-12-27T03:04:32.062Z, 27.98
2022-12-27T03:05:32.072Z, 27.96
2022-12-27T03:06:32.079Z, 27.95
2022-12-27T03:07:32.077Z, 27.96
2022-12-27T03:08:32.146Z, 27.97
2022-12-27T03:09:32.123Z, 27.97
2022-12-27T03:10:32.172Z, 27.93
2022-12-27T03:11:32.182Z, 27.90
2022-12-27T03:12:32.178Z, 27.89
2022-12-27T03:13:32.174Z, 27.90
2022-12-27T03:14:32.156Z, 27.87
2022-12-27T03:15:33.527Z, 27.88
2022-12-27T03:16:32.177Z, 27.89
2022-12-27T03:17:32.245Z, 27.84
2022-12-27T03:18:32.231Z, 27.86
2022-12-27T03:19:32.235Z, 27.85
2022-12-27T03:20:32.221Z, 27.83
2022-12-27T03:21:32.227Z, 27.81
2022-12-27T03:22:32.286Z, 27.84
2022-12-27T03:23:32.270Z, 27.87
2022-12-27T03:24:32.327Z, 27.85
2022-12-27T03:25:32.279Z, 27.85
2022-12-27T03:26:32.340Z, 27.81
2022-12-27T03:27:32.333Z, 27.78
2022-12-27T03:28:32.406Z, 27.77
2022-12-27T03:29:32.350Z, 27.75
2022-12-27T03:30:32.384Z, 27.73
2022-12-27T03:31:32.371Z, 27.72
2022-12-27T03:32:32.372Z, 27.72
2022-12-27T03:33:32.392Z, 27.70
2022-12-27T03:34:32.377Z, 27.68
2022-12-27T03:35:32.445Z, 27.68
2022-12-27T03:36:32.471Z, 27.67
2022-12-27T03:37:32.443Z, 27.68
2022-12-27T03:38:32.484Z, 27.65
2022-12-27T03:39:32.455Z, 27.65
2022-12-27T03:40:32.498Z, 27.62
2022-12-27T03:41:32.495Z, 27.61
2022-12-27T03:42:32.524Z, 27.63
2022-12-27T03:43:32.531Z, 27.62
2022-12-27T03:44:32.514Z, 27.60
2022-12-27T03:45:32.553Z, 27.62
2022-12-27T03:46:32.593Z, 27.62
2022-12-27T03:47:32.539Z, 27.61
2022-12-27T03:48:32.551Z, 27.58
2022-12-27T03:49:32.544Z, 27.58
2022-12-27T03:50:32.616Z, 27.57
2022-12-27T03:51:32.727Z, 27.58
2022-12-27T03:52:32.625Z, 27.57
2022-12-27T03:53:32.627Z, 27.55
2022-12-27T03:54:32.622Z, 27.53
2022-12-27T03:55:33.666Z, 27.51
2022-12-27T03:56:32.682Z, 27.48
2022-12-27T03:57:32.672Z, 27.49
2022-12-27T03:58:32.722Z, 27.49
2022-12-27T03:59:32.667Z, 27.47
2022-12-27T04:00:32.763Z, 27.47
2022-12-27T04:01:32.808Z, 27.46
2022-12-27T04:02:33.058Z, 27.46
2022-12-27T04:03:32.861Z, 27.41
2022-12-27T04:04:32.748Z, 27.39
2022-12-27T04:05:32.765Z, 27.42
2022-12-27T04:06:32.751Z, 27.42
2022-12-27T04:07:32.828Z, 27.38
2022-12-27T04:08:32.812Z, 27.36
2022-12-27T04:09:32.856Z, 27.37
2022-12-27T04:10:32.835Z, 27.37
2022-12-27T04:11:32.909Z, 27.38
2022-12-27T04:12:32.880Z, 27.39
2022-12-27T04:13:32.897Z, 27.36
2022-12-27T04:14:32.922Z, 27.32
2022-12-27T04:15:32.882Z, 27.34
2022-12-27T04:16:32.893Z, 27.35
2022-12-27T04:17:32.893Z, 27.35
2022-12-27T04:18:32.925Z, 27.34
2022-12-27T04:19:32.904Z, 27.33
2022-12-27T04:20:32.917Z, 27.31
2022-12-27T04:21:32.939Z, 27.29
2022-12-27T04:22:33.008Z, 27.30
2022-12-27T04:23:33.009Z, 27.30
2022-12-27T04:24:33.015Z, 27.29
2022-12-27T04:25:33.033Z, 27.27
2022-12-27T04:26:32.996Z, 27.27
2022-12-27T04:27:33.083Z, 27.28
2022-12-27T04:28:33.061Z, 27.29
2022-12-27T04:29:33.053Z, 27.27
2022-12-27T04:30:33.092Z, 27.27
2022-12-27T04:31:33.125Z, 27.76
2022-12-27T04:32:33.125Z, 28.57
2022-12-27T04:33:33.124Z, 31.94
2022-12-27T04:34:33.150Z, 39.01
2022-12-27T04:35:33.141Z, 42.08
2022-12-27T04:36:33.169Z, 40.30
2022-12-27T04:37:33.155Z, 37.43
2022-12-27T04:38:33.229Z, 35.26
2022-12-27T04:39:33.198Z, 33.55
2022-12-27T04:40:33.238Z, 31.17
2022-12-27T04:41:33.224Z, 28.27
2022-12-27T04:42:33.265Z, 25.79
2022-12-27T04:43:33.252Z, 25.62
2022-12-27T04:44:33.244Z, 29.86
2022-12-27T04:45:33.237Z, 33.38
2022-12-27T04:46:33.295Z, 35.76
2022-12-27T04:47:33.263Z, 37.76
2022-12-27T04:48:33.253Z, 39.63
2022-12-27T04:49:33.313Z, 41.26
2022-12-27T04:50:33.335Z, 42.38
2022-12-27T04:51:33.307Z, 43.26
2022-12-27T04:52:33.303Z, 44.07
2022-12-27T04:53:33.315Z, 44.72
2022-12-27T04:54:33.340Z, 45.39
2022-12-27T04:55:33.349Z, 46.67
2022-12-27T04:56:33.344Z, 48.13
2022-12-27T04:57:33.354Z, 49.21
2022-12-27T04:58:33.417Z, 50.67
2022-12-27T04:59:33.409Z, 52.43
2022-12-27T05:00:33.480Z, 51.88
2022-12-27T05:01:33.584Z, 48.67
2022-12-27T05:02:33.642Z, 44.27
2022-12-27T05:03:33.513Z, 40.59
2022-12-27T05:04:33.461Z, 35.99
2022-12-27T05:05:33.469Z, 34.98
2022-12-27T05:06:33.465Z, 36.78
2022-12-27T05:07:33.520Z, 40.81
2022-12-27T05:08:33.528Z, 44.41
2022-12-27T05:09:33.503Z, 48.03
2022-12-27T05:10:33.502Z, 51.84
2022-12-27T05:11:33.550Z, 55.72
2022-12-27T05:12:33.535Z, 59.42
2022-12-27T05:13:33.619Z, 68.53
2022-12-27T05:14:33.601Z, 54.61
2022-12-27T05:15:33.632Z, 52.17
2022-12-27T05:16:33.761Z, 53.43
2022-12-27T05:17:33.645Z, 54.97
2022-12-27T05:18:33.646Z, 57.39
2022-12-27T05:19:33.632Z, 60.32
2022-12-27T05:20:33.641Z, 69.13
2022-12-27T05:21:33.640Z, 56.42
2022-12-27T05:22:33.727Z, 53.66
2022-12-27T05:23:33.711Z, 54.66
2022-12-27T05:24:33.715Z, 56.41
2022-12-27T05:25:33.774Z, 58.79
2022-12-27T05:26:33.763Z, 62.09
2022-12-27T05:27:33.799Z, 61.08
2022-12-27T05:28:34.006Z, 53.01
2022-12-27T05:29:33.807Z, 55.18
2022-12-27T05:30:33.794Z, 51.84
2022-12-27T05:31:33.856Z, 46.90
2022-12-27T05:32:33.837Z, 44.96
2022-12-27T05:33:33.846Z, 44.19
2022-12-27T05:34:33.832Z, 43.73
2022-12-27T05:35:33.824Z, 43.29
2022-12-27T05:36:33.823Z, 42.84
2022-12-27T05:37:33.822Z, 43.94
2022-12-27T05:38:33.851Z, 47.75
2022-12-27T05:39:33.844Z, 50.87
2022-12-27T05:40:33.913Z, 52.48
2022-12-27T05:41:33.911Z, 51.66
2022-12-27T05:42:33.928Z, 49.23
2022-12-27T05:43:33.954Z, 46.65
2022-12-27T05:44:33.936Z, 44.11
2022-12-27T05:45:33.939Z, 41.68
2022-12-27T05:46:34.058Z, 38.93
2022-12-27T05:47:33.978Z, 35.40
2022-12-27T05:48:34.009Z, 32.15
2022-12-27T05:49:33.988Z, 34.17
2022-12-27T05:50:33.993Z, 39.04
2022-12-27T05:51:34.101Z, 42.99
2022-12-27T05:52:40.614Z, 45.49
2022-12-27T05:53:34.100Z, 47.82
2022-12-27T05:54:34.077Z, 49.98
2022-12-27T05:55:34.095Z, 52.35
2022-12-27T05:56:34.123Z, 52.66
2022-12-27T05:57:34.085Z, 50.73
2022-12-27T05:58:34.111Z, 48.52
2022-12-27T05:59:34.127Z, 46.24
2022-12-27T06:00:34.147Z, 44.31
2022-12-27T06:01:34.255Z, 42.68
2022-12-27T06:02:34.374Z, 40.82
2022-12-27T06:03:34.219Z, 38.70
2022-12-27T06:04:34.211Z, 36.07
2022-12-27T06:05:34.200Z, 33.51
2022-12-27T06:06:34.234Z, 35.41
2022-12-27T06:07:34.202Z, 40.42
2022-12-27T06:08:34.288Z, 44.57
2022-12-27T06:09:34.270Z, 47.03
2022-12-27T06:10:34.266Z, 49.20
2022-12-27T06:11:34.262Z, 51.70
2022-12-27T06:12:34.279Z, 53.70
2022-12-27T06:13:34.327Z, 53.66
2022-12-27T06:14:34.317Z, 52.30
2022-12-27T06:15:34.336Z, 50.40
2022-12-27T06:16:34.370Z, 49.31
2022-12-27T06:17:34.417Z, 49.15
2022-12-27T06:18:34.380Z, 48.84
2022-12-27T06:19:34.387Z, 48.48
2022-12-27T06:20:34.396Z, 48.31
2022-12-27T06:21:34.382Z, 48.15
2022-12-27T06:22:34.395Z, 47.97
2022-12-27T06:23:34.474Z, 47.79
2022-12-27T06:24:34.453Z, 47.57
2022-12-27T06:25:34.504Z, 47.34
2022-12-27T06:26:34.477Z, 47.21
2022-12-27T06:27:34.485Z, 47.00
2022-12-27T06:28:34.487Z, 46.84
2022-12-27T06:29:34.495Z, 46.69
2022-12-27T06:30:36.453Z, 46.47
2022-12-27T06:31:34.580Z, 46.25
2022-12-27T06:32:34.582Z, 46.09
2022-12-27T06:33:34.548Z, 45.90
2022-12-27T06:34:34.551Z, 45.71
2022-12-27T06:35:34.574Z, 45.55
2022-12-27T06:36:34.584Z, 45.36
2022-12-27T06:37:34.649Z, 45.17
2022-12-27T06:38:34.642Z, 45.04
2022-12-27T06:39:34.666Z, 44.87
2022-12-27T06:40:34.648Z, 44.69
2022-12-27T06:41:34.694Z, 44.51
2022-12-27T06:42:34.688Z, 44.35
2022-12-27T06:43:34.685Z, 44.17
2022-12-27T06:44:34.666Z, 44.01
2022-12-27T06:45:34.679Z, 43.83
2022-12-27T06:46:34.663Z, 43.68
2022-12-27T06:47:34.675Z, 43.52
2022-12-27T06:48:34.710Z, 43.38
2022-12-27T06:49:34.723Z, 43.24
2022-12-27T06:50:34.704Z, 43.07
2022-12-27T06:51:34.726Z, 42.97
2022-12-27T06:52:34.731Z, 42.81
2022-12-27T06:53:34.731Z, 42.66
2022-12-27T06:54:34.776Z, 42.59
2022-12-27T06:55:34.761Z, 42.40
2022-12-27T06:56:34.849Z, 42.28
2022-12-27T06:57:34.843Z, 42.15
2022-12-27T06:58:34.876Z, 42.01
2022-12-27T06:59:34.872Z, 41.91
2022-12-27T07:00:34.900Z, 41.78
2022-12-27T07:01:35.006Z, 41.74
2022-12-27T07:02:35.059Z, 41.57
2022-12-27T07:03:34.909Z, 41.45
2022-12-27T07:04:34.937Z, 41.31
2022-12-27T07:05:34.905Z, 41.19
2022-12-27T07:06:34.906Z, 41.09
2022-12-27T07:07:34.924Z, 40.98
2022-12-27T07:08:34.967Z, 40.92
2022-12-27T07:09:34.955Z, 40.84
2022-12-27T07:10:34.953Z, 40.70
2022-12-27T07:11:34.987Z, 40.61
2022-12-27T07:12:37.009Z, 40.52
2022-12-27T07:13:34.993Z, 40.43
2022-12-27T07:14:34.992Z, 40.35
2022-12-27T07:15:35.045Z, 40.27
2022-12-27T07:16:35.136Z, 40.13
2022-12-27T07:17:35.083Z, 40.03
2022-12-27T07:18:35.086Z, 39.96
2022-12-27T07:19:35.135Z, 39.87
2022-12-27T07:20:35.131Z, 39.80
2022-12-27T07:21:35.126Z, 39.76
2022-12-27T07:22:35.109Z, 39.61
2022-12-27T07:23:35.112Z, 39.54
2022-12-27T07:24:35.186Z, 39.50
2022-12-27T07:25:35.184Z, 39.43
2022-12-27T07:26:35.167Z, 39.30
2022-12-27T07:27:35.222Z, 39.22
2022-12-27T07:28:35.191Z, 39.15
2022-12-27T07:29:38.938Z, 39.06
2022-12-27T07:30:35.232Z, 39.00
2022-12-27T07:31:35.255Z, 38.88
2022-12-27T07:32:35.227Z, 38.84
2022-12-27T07:33:35.240Z, 38.74
2022-12-27T07:34:35.270Z, 38.70
2022-12-27T07:35:36.837Z, 38.64
2022-12-27T07:36:35.326Z, 38.56
2022-12-27T07:37:35.317Z, 38.53
2022-12-27T07:38:35.360Z, 38.41
2022-12-27T07:39:35.323Z, 38.34
2022-12-27T07:40:35.357Z, 38.31
2022-12-27T07:41:35.332Z, 38.24
2022-12-27T07:42:35.412Z, 38.16
2022-12-27T07:43:35.413Z, 38.14
2022-12-27T07:44:35.383Z, 38.08
2022-12-27T07:45:35.424Z, 38.03
2022-12-27T07:46:35.397Z, 37.97
2022-12-27T07:47:35.393Z, 37.92
2022-12-27T07:48:35.409Z, 37.76
2022-12-27T07:49:35.417Z, 37.71
2022-12-27T07:50:35.411Z, 37.71
2022-12-27T07:51:35.494Z, 37.70
2022-12-27T07:52:35.476Z, 37.62
2022-12-27T07:53:35.509Z, 37.53
2022-12-27T07:54:35.488Z, 37.42
2022-12-27T07:55:35.572Z, 37.41
2022-12-27T07:56:35.554Z, 37.35
2022-12-27T07:57:35.567Z, 37.31
2022-12-27T07:58:35.566Z, 37.23
2022-12-27T07:59:35.581Z, 37.22
2022-12-27T08:00:35.581Z, 37.17
2022-12-27T08:01:35.590Z, 37.11
2022-12-27T08:02:35.619Z, 37.05
2022-12-27T08:03:35.612Z, 36.96
2022-12-27T08:04:35.653Z, 36.87
2022-12-27T08:05:35.625Z, 36.84
2022-12-27T08:06:35.614Z, 36.81
2022-12-27T08:07:35.692Z, 36.77
2022-12-27T08:08:35.684Z, 36.72
2022-12-27T08:09:35.755Z, 36.64
2022-12-27T08:10:35.725Z, 36.62
2022-12-27T08:11:35.708Z, 36.62
2022-12-27T08:12:35.710Z, 36.58
2022-12-27T08:13:35.718Z, 36.56
2022-12-27T08:14:35.716Z, 36.50
2022-12-27T08:15:35.737Z, 36.46
2022-12-27T08:16:35.834Z, 36.42
2022-12-27T08:17:35.803Z, 36.39
2022-12-27T08:18:35.806Z, 36.33
2022-12-27T08:19:35.866Z, 36.29
2022-12-27T08:20:35.842Z, 36.21
2022-12-27T08:21:35.832Z, 36.18
2022-12-27T08:22:35.872Z, 36.11
2022-12-27T08:23:35.892Z, 36.14
2022-12-27T08:24:35.859Z, 36.12
2022-12-27T08:25:35.872Z, 36.03
2022-12-27T08:26:35.908Z, 36.04
2022-12-27T08:27:35.881Z, 35.98
2022-12-27T08:28:35.893Z, 35.91
2022-12-27T08:29:35.888Z, 35.88
2022-12-27T08:30:35.935Z, 35.86
2022-12-27T08:31:35.951Z, 35.80
2022-12-27T08:32:35.913Z, 35.76
2022-12-27T08:33:36.028Z, 35.70
2022-12-27T08:34:35.991Z, 35.67
2022-12-27T08:35:52.617Z, 35.62
2022-12-27T08:36:54.708Z, 35.59
2022-12-27T08:37:35.978Z, 35.56
2022-12-27T08:38:36.005Z, 35.50
2022-12-27T08:39:36.010Z, 35.47
2022-12-27T08:40:36.042Z, 35.45
2022-12-27T08:41:36.035Z, 35.44
2022-12-27T08:42:36.071Z, 35.39
2022-12-27T08:43:36.100Z, 35.36
2022-12-27T08:44:36.126Z, 35.31
2022-12-27T08:45:36.119Z, 35.27
2022-12-27T08:46:36.194Z, 35.24
2022-12-27T08:47:36.130Z, 35.19
2022-12-27T08:48:36.224Z, 35.17
2022-12-27T08:49:36.150Z, 35.12
2022-12-27T08:50:36.156Z, 35.11
2022-12-27T08:51:41.281Z, 35.06
2022-12-27T08:52:36.169Z, 35.05
2022-12-27T08:53:36.198Z, 35.06
2022-12-27T08:54:36.182Z, 35.05
2022-12-27T08:55:36.188Z, 34.98
2022-12-27T08:56:36.221Z, 34.94
2022-12-27T08:57:36.199Z, 34.89
2022-12-27T08:58:36.271Z, 34.88
2022-12-27T08:59:36.257Z, 34.89
2022-12-27T09:00:36.283Z, 34.84
2022-12-27T09:01:36.379Z, 34.76
2022-12-27T09:02:36.358Z, 34.73
2022-12-27T09:03:36.346Z, 34.69
2022-12-27T09:04:36.282Z, 34.63
2022-12-27T09:05:41.355Z, 34.61
2022-12-27T09:06:36.317Z, 34.58
2022-12-27T09:07:36.381Z, 34.54
2022-12-27T09:08:36.344Z, 34.53
2022-12-27T09:09:36.395Z, 34.51
2022-12-27T09:10:36.409Z, 34.47
2022-12-27T09:11:36.428Z, 34.44
2022-12-27T09:12:36.412Z, 34.37
2022-12-27T09:13:36.461Z, 34.36
2022-12-27T09:14:36.474Z, 34.38
2022-12-27T09:15:36.538Z, 34.36
2022-12-27T09:16:36.442Z, 34.33
2022-12-27T09:17:36.492Z, 34.28
2022-12-27T09:18:36.487Z, 34.23
2022-12-27T09:19:36.492Z, 34.22
2022-12-27T09:20:36.489Z, 34.22
2022-12-27T09:21:36.514Z, 34.17
2022-12-27T09:22:36.588Z, 34.12
2022-12-27T09:23:36.517Z, 34.09
2022-12-27T09:24:36.551Z, 34.09
2022-12-27T09:25:36.597Z, 34.09
2022-12-27T09:26:36.535Z, 34.04
2022-12-27T09:27:36.574Z, 34.02
2022-12-27T09:28:36.638Z, 33.96
2022-12-27T09:29:36.633Z, 33.93
2022-12-27T09:30:36.637Z, 33.90
2022-12-27T09:31:36.673Z, 33.88
2022-12-27T09:32:36.622Z, 33.87
2022-12-27T09:33:36.713Z, 33.84
2022-12-27T09:34:36.707Z, 33.87
2022-12-27T09:35:38.646Z, 33.82
2022-12-27T09:36:36.710Z, 33.81
2022-12-27T09:37:36.728Z, 33.74
2022-12-27T09:38:36.711Z, 33.73
2022-12-27T09:39:36.716Z, 33.71
2022-12-27T09:40:36.714Z, 33.68
2022-12-27T09:42:33.735Z, 33.68
2022-12-27T09:42:57.684Z, 33.65
2022-12-27T09:43:36.745Z, 33.60
2022-12-27T09:44:36.819Z, 33.61
2022-12-27T09:45:36.788Z, 33.60
2022-12-27T09:46:36.878Z, 33.56
2022-12-27T09:47:36.838Z, 33.56
2022-12-27T09:48:36.859Z, 33.50
2022-12-27T09:49:36.840Z, 33.41
2022-12-27T09:50:36.837Z, 33.40
2022-12-27T09:51:36.842Z, 33.41
2022-12-27T09:52:36.840Z, 33.36
2022-12-27T09:53:36.925Z, 33.35
2022-12-27T09:54:36.919Z, 33.30
2022-12-27T09:55:36.939Z, 33.29
2022-12-27T09:57:09.597Z, 33.27
2022-12-27T09:57:36.948Z, 33.19
2022-12-27T09:58:36.999Z, 33.23
2022-12-27T09:59:36.956Z, 33.20
2022-12-27T10:00:38.927Z, 33.19
2022-12-27T10:01:37.051Z, 33.15
2022-12-27T10:02:37.143Z, 33.14
2022-12-27T10:03:36.983Z, 33.09
2022-12-27T10:05:09.757Z, 33.01
2022-12-27T10:05:37.221Z, 33.02
2022-12-27T10:06:37.059Z, 33.03
2022-12-27T10:07:37.044Z, 33.02
2022-12-27T10:08:37.097Z, 32.98
2022-12-27T10:09:37.087Z, 32.94
2022-12-27T10:10:37.088Z, 32.92
2022-12-27T10:11:37.186Z, 32.92
2022-12-27T10:12:37.102Z, 32.92
2022-12-27T10:13:37.151Z, 32.88
2022-12-27T10:14:37.129Z, 32.83
2022-12-27T10:15:37.285Z, 32.82
2022-12-27T10:16:37.143Z, 32.76
2022-12-27T10:17:37.227Z, 32.81
2022-12-27T10:18:37.217Z, 32.80
2022-12-27T10:19:37.205Z, 32.79
2022-12-27T10:20:37.200Z, 32.75
2022-12-27T10:21:37.217Z, 32.69
2022-12-27T10:22:37.206Z, 32.67
2022-12-27T10:23:37.246Z, 32.65
2022-12-27T10:24:37.307Z, 32.65
2022-12-27T10:25:37.288Z, 32.65
2022-12-27T10:26:37.287Z, 32.63
2022-12-27T10:27:37.276Z, 32.63
2022-12-27T10:28:37.334Z, 32.59
2022-12-27T10:29:37.309Z, 32.59
2022-12-27T10:30:37.344Z, 32.58
2022-12-27T10:31:37.424Z, 32.58
2022-12-27T10:32:37.321Z, 32.55
2022-12-27T10:33:37.343Z, 32.51
2022-12-27T10:34:37.349Z, 32.49
2022-12-27T10:35:37.404Z, 32.46
2022-12-27T10:36:37.407Z, 32.41
2022-12-27T10:37:37.474Z, 32.44
2022-12-27T10:38:37.452Z, 32.39
2022-12-27T10:39:37.481Z, 32.36
2022-12-27T10:40:37.457Z, 32.36
2022-12-27T10:41:37.488Z, 32.31
2022-12-27T10:42:37.485Z, 32.31
2022-12-27T10:43:37.546Z, 32.27
2022-12-27T10:44:37.523Z, 32.25
2022-12-27T10:45:37.506Z, 32.24
2022-12-27T10:46:37.536Z, 32.23
2022-12-27T10:47:37.504Z, 32.20
2022-12-27T10:49:02.617Z, 32.16
2022-12-27T10:49:37.533Z, 32.16
2022-12-27T10:50:37.616Z, 32.15
2022-12-27T10:51:37.599Z, 32.15
2022-12-27T10:52:37.617Z, 32.15
2022-12-27T10:53:37.614Z, 32.16
2022-12-27T10:54:37.628Z, 32.14
2022-12-27T10:55:37.623Z, 32.09
2022-12-27T10:56:37.617Z, 32.02
2022-12-27T10:57:37.699Z, 31.98
2022-12-27T10:58:37.699Z, 31.98
2022-12-27T10:59:37.863Z, 32.01
2022-12-27T11:00:37.765Z, 31.99
2022-12-27T11:01:37.980Z, 32.43
2022-12-27T11:02:37.876Z, 33.41
2022-12-27T11:03:37.746Z, 39.13
2022-12-27T11:04:37.740Z, 42.82
2022-12-27T11:05:37.735Z, 44.11
2022-12-27T11:06:37.752Z, 44.93
2022-12-27T11:07:37.747Z, 45.98
2022-12-27T11:08:37.839Z, 47.35
2022-12-27T11:09:37.822Z, 47.45
2022-12-27T11:10:37.847Z, 44.48
2022-12-27T11:11:37.852Z, 39.94
2022-12-27T11:12:37.866Z, 35.24
2022-12-27T11:13:37.883Z, 29.51
2022-12-27T11:14:37.875Z, 26.50
2022-12-27T11:15:37.899Z, 29.39
2022-12-27T11:16:37.911Z, 33.42
2022-12-27T11:17:37.899Z, 36.10
2022-12-27T11:18:37.885Z, 37.79
2022-12-27T11:19:37.895Z, 39.08
2022-12-27T11:20:37.907Z, 40.10
2022-12-27T11:21:37.912Z, 40.73
2022-12-27T11:22:37.925Z, 41.35
2022-12-27T11:23:38.017Z, 42.19
2022-12-27T11:24:38.024Z, 43.31
2022-12-27T11:25:38.043Z, 44.77
2022-12-27T11:26:38.033Z, 46.26
2022-12-27T11:27:38.069Z, 47.76
2022-12-27T11:28:38.063Z, 49.03
2022-12-27T11:29:38.037Z, 47.10
2022-12-27T11:30:38.095Z, 44.72
2022-12-27T11:31:38.094Z, 45.55
2022-12-27T11:32:38.053Z, 45.69
2022-12-27T11:33:38.057Z, 45.42
2022-12-27T11:34:38.137Z, 45.32
2022-12-27T11:35:38.101Z, 45.16
2022-12-27T11:36:38.166Z, 45.02
2022-12-27T11:37:38.142Z, 44.87
2022-12-27T11:38:38.175Z, 44.72
2022-12-27T11:39:38.135Z, 44.57
2022-12-27T11:40:38.140Z, 44.37
2022-12-27T11:41:38.145Z, 44.24
2022-12-27T11:42:38.139Z, 44.06
2022-12-27T11:43:38.222Z, 43.91
2022-12-27T11:44:38.249Z, 43.75
2022-12-27T11:45:38.224Z, 43.54
2022-12-27T11:46:38.243Z, 43.37
2022-12-27T11:47:38.250Z, 43.20
2022-12-27T11:48:38.295Z, 43.07
2022-12-27T11:49:38.288Z, 42.89
2022-12-27T11:50:38.334Z, 42.71
2022-12-27T11:51:38.349Z, 42.54
2022-12-27T11:52:38.330Z, 42.40
2022-12-27T11:53:38.339Z, 42.22
2022-12-27T11:54:38.410Z, 42.05
2022-12-27T11:55:38.396Z, 41.88
2022-12-27T11:56:38.398Z, 41.70
2022-12-27T11:57:38.388Z, 41.58
2022-12-27T11:58:38.378Z, 41.40
2022-12-27T11:59:38.458Z, 41.23
2022-12-27T12:00:38.420Z, 41.05
2022-12-27T12:01:38.675Z, 40.91
2022-12-27T12:02:38.499Z, 40.77
2022-12-27T12:03:38.557Z, 40.61
2022-12-27T12:04:38.470Z, 40.50
2022-12-27T12:05:38.470Z, 40.34
2022-12-27T12:06:38.473Z, 40.22
2022-12-27T12:07:38.511Z, 40.09
2022-12-27T12:08:38.518Z, 39.94
2022-12-27T12:09:38.494Z, 39.76
2022-12-27T12:10:38.580Z, 39.64
2022-12-27T12:11:38.560Z, 39.53
2022-12-27T12:12:38.626Z, 39.37
2022-12-27T12:13:38.619Z, 39.29
2022-12-27T12:14:38.620Z, 39.18
2022-12-27T12:15:38.613Z, 39.06
2022-12-27T12:16:38.738Z, 38.92
2022-12-27T12:17:38.656Z, 38.79
2022-12-27T12:18:38.666Z, 38.63
2022-12-27T12:19:38.650Z, 38.52
2022-12-27T12:20:38.654Z, 38.40
2022-12-27T12:21:38.661Z, 38.31
2022-12-27T12:22:38.665Z, 38.20
2022-12-27T12:23:38.751Z, 38.09
2022-12-27T12:24:38.747Z, 37.97
2022-12-27T12:25:38.735Z, 37.88
2022-12-27T12:26:38.724Z, 37.79
2022-12-27T12:27:38.732Z, 37.71
2022-12-27T12:28:57.837Z, 37.61